Columbia Falls, MT

12:30 PM MDT on July 02, 2015 (GMT -0600)
Tamarack Lane | | Change Station
CLOSE
Current Station
Personal Weather Station
Location: Columbia Falls, Mt
Elevation: 3133 ft
Nearby Weather Stations

Elev 3133 ft 48.38 °N, 114.19 °W | Updated 20 minutes ago

Clear
Clear
91.4 °F
Feels Like 90 °F
N
0.9
Wind Variable Wind from SE
Gusts 0.9 mph

Today
High -- | Low -- °F
--% Chance of Precip.
Yesterday
High -- | Low -- °F
Precip. -- in
5:40 AM 9:41 PM
Waxing Gibbous, 99% visible
Pressure 30.12 in
Visibility 9.0 miles
Clouds Clear
Heat Index 90 °F
Dew Point 58 °F
Humidity 33%
Rainfall 0.00 in
Snow Depth Not available.
UV 10 out of 12
Pollen 6.20 out of 12
Air Quality Not available.
Flu Activity Not available.
METAR KCTB 021756Z AUTO VRB06KT 9SM CLR 24/09 A3019 RMK AO2 SLP197 T02390094 10239 20106 58009

More Conditions Fewer Conditions

Pressure 30.12 in
Visibility 9.0 miles
Clouds Clear
Heat Index 90 °F
Dew Point 58 °F
Humidity 33%
Rainfall 0.00 in
Snow Depth Not available.
UV 10 out of 12
Pollen 6.20 out of 12
Air Quality Not available.
Flu Activity Not available.
METAR KCTB 021756Z AUTO VRB06KT 9SM CLR 24/09 A3019 RMK AO2 SLP197 T02390094 10239 20106 58009

More Conditions Fewer Conditions

10-Day Weather Forecast

×

Almanac

Astronomy

Jul. 02, 2015 Rise Set
Actual Time
Civil Twilight
Nautical Twilight
Astronomical Twilight
Moon
Length of Visible Light
Length of Day
Tomorrow will be .
, % of the Moon is Illuminated

Today's Extremes

State Highs State Lows

Community

WunderPhotos

Upload Photos

1,834,514 photos uploaded!

WunderBlogs® & News

Nearby

Air Quality

  Air Quality AQ Index Pollutant
Not available.

Snow Depth

Station Depth Elevation

Earthquake Activity

City Distance Mag. Time & Date
Minimum magnitude displayed is 2.5.

Coastal Water Temperatures

Place Temperature

Stations

Nearby Weather Stations

Station Location Temp. Windchill Dew Point Humidity Wind Precip. Elev Updated Type